Time;durP1;ratioP1;P1;durP2;ratioP2;P2;SDS_P1;SDS_P2;PMS_P1;PMS_P2;Temp;Humidity;BMP_temperature;BMP_pressure;BME280_temperature;BME280_humidity;BME280_pressure;Samples;Min_cycle;Max_cycle;Signal;HPM_P1;HPM_P2
2023/01/14 00:00:24;;;;;;;23.92;5.10;;;;;;;;;;5030804;28;21416;-87
2023/01/14 00:02:50;;;;;;;25.85;5.60;;;;;;;;;;5032499;28;20045;-85
2023/01/14 00:05:16;;;;;;;21.70;4.85;;;;;;;;;;5027778;28;20375;-87
2023/01/14 00:07:42;;;;;;;23.10;4.63;;;;;;;;;;5028150;28;20053;-87
2023/01/14 00:10:08;;;;;;;17.98;4.68;;;;;;;;;;5026265;28;20092;-87
2023/01/14 00:12:34;;;;;;;14.50;4.13;;;;;;;;;;5026791;28;20361;-82
2023/01/14 00:15:01;;;;;;;22.05;4.88;;;;;;;;;;5022089;28;20045;-82
2023/01/14 00:17:27;;;;;;;23.88;4.93;;;;;;;;;;5031837;28;20140;-81
2023/01/14 00:19:53;;;;;;;17.77;4.45;;;;;;;;;;5026349;28;20425;-82
2023/01/14 00:22:19;;;;;;;18.40;4.57;;;;;;;;;;5012492;28;20052;-83
2023/01/14 00:24:47;;;;;;;15.68;4.35;;;;;;;;;;5053838;28;20046;-83
2023/01/14 00:27:15;;;;;;;19.25;4.57;;;;;;;;;;5028910;28;20378;-83
2023/01/14 00:29:41;;;;;;;21.33;4.50;;;;;;;;;;5018562;28;20085;-83
2023/01/14 00:32:07;;;;;;;19.38;4.30;;;;;;;;;;5039190;28;20474;-84
2023/01/14 00:34:36;;;;;;;17.05;4.78;;;;;;;;;;5028306;28;20048;-83
2023/01/14 00:37:02;;;;;;;20.48;5.85;;;;;;;;;;5025181;28;20053;-83
2023/01/14 00:39:28;;;;;;;23.90;5.18;;;;;;;;;;5016695;28;20112;-83
2023/01/14 00:41:54;;;;;;;25.17;4.78;;;;;;;;;;5021589;28;20064;-82
2023/01/14 00:44:20;;;;;;;24.17;5.35;;;;;;;;;;5049557;28;20404;-83
2023/01/14 00:46:46;;;;;;;23.60;5.18;;;;;;;;;;5028029;28;20045;-83
2023/01/14 00:49:17;;;;;;;23.50;5.13;;;;;;;;;;5021958;28;20037;-83
2023/01/14 00:51:43;;;;;;;23.77;5.45;;;;;;;;;;5021481;28;20092;-83
2023/01/14 00:54:09;;;;;;;24.65;5.28;;;;;;;;;;5030876;28;20041;-83
2023/01/14 00:56:35;;;;;;;22.00;5.93;;;;;;;;;;5026201;28;20045;-83
2023/01/14 00:59:01;;;;;;;24.20;5.97;;;;;;;;;;5039710;28;20037;-83
2023/01/14 01:01:27;;;;;;;20.75;5.50;;;;;;;;;;5029349;28;20080;-83
2023/01/14 01:03:54;;;;;;;20.08;4.47;;;;;;;;;;5020405;28;20053;-83
2023/01/14 01:06:21;;;;;;;24.35;5.75;;;;;;;;;;5019489;28;20048;-83
2023/01/14 01:08:48;;;;;;;19.50;4.80;;;;;;;;;;5058080;28;20038;-83
2023/01/14 01:11:17;;;;;;;19.15;5.10;;;;;;;;;;5024095;28;20095;-83
2023/01/14 01:13:43;;;;;;;20.05;4.45;;;;;;;;;;5016316;28;20129;-83
2023/01/14 01:16:14;;;;;;;18.25;4.25;;;;;;;;;;5020089;28;20042;-83
2023/01/14 01:18:41;;;;;;;20.60;5.03;;;;;;;;;;5019558;28;20489;-82
2023/01/14 01:21:11;;;;;;;25.30;4.97;;;;;;;;;;5026125;28;20053;-83
2023/01/14 01:23:41;;;;;;;18.00;5.15;;;;;;;;;;5034199;28;20112;-83
2023/01/14 01:26:07;;;;;;;17.45;4.82;;;;;;;;;;5034178;28;20440;-83
2023/01/14 01:28:33;;;;;;;20.35;4.78;;;;;;;;;;5015383;28;20677;-83
2023/01/14 01:31:03;;;;;;;19.17;5.22;;;;;;;;;;5026361;28;20454;-83
2023/01/14 01:33:30;;;;;;;20.63;4.88;;;;;;;;;;5028046;28;20041;-83
2023/01/14 01:36:03;;;;;;;19.92;4.78;;;;;;;;;;5027686;28;20072;-83
2023/01/14 01:38:29;;;;;;;;;;;;;;;;;;5027707;28;20049;-83
2023/01/14 01:40:56;;;;;;;18.15;4.15;;;;;;;;;;5036103;28;19991;-82
2023/01/14 01:43:23;;;;;;;18.73;4.78;;;;;;;;;;5040604;28;20053;-82
2023/01/14 01:45:50;;;;;;;17.15;4.93;;;;;;;;;;5030881;28;20126;-82
2023/01/14 01:48:37;;;;;;;18.75;4.40;;;;;;;;;;5024360;28;20104;-83
2023/01/14 01:51:05;;;;;;;20.85;5.85;;;;;;;;;;5027260;28;20048;-83
2023/01/14 01:53:33;;;;;;;19.20;4.78;;;;;;;;;;5018314;28;20040;-82
2023/01/14 01:56:00;;;;;;;19.73;5.88;;;;;;;;;;5029740;28;20547;-83
2023/01/14 01:58:26;;;;;;;22.92;4.85;;;;;;;;;;5042665;28;20045;-83
2023/01/14 02:00:52;;;;;;;17.80;4.28;;;;;;;;;;5042930;28;20312;-82
2023/01/14 02:03:26;;;;;;;16.13;5.07;;;;;;;;;;5029901;28;20045;-83
2023/01/14 02:05:52;;;;;;;22.75;4.55;;;;;;;;;;5033129;28;20053;-82
2023/01/14 02:08:18;;;;;;;18.25;4.80;;;;;;;;;;5039535;28;20044;-83
2023/01/14 02:10:55;;;;;;;20.65;4.50;;;;;;;;;;5035567;28;20049;-83
2023/01/14 02:13:27;;;;;;;16.70;4.43;;;;;;;;;;5039181;28;20056;-83
2023/01/14 02:15:59;;;;;;;21.15;4.93;;;;;;;;;;5041574;28;20036;-82
2023/01/14 02:18:28;;;;;;;23.75;4.90;;;;;;;;;;5033477;28;20053;-82
2023/01/14 02:21:03;;;;;;;13.70;3.97;;;;;;;;;;5021648;28;20077;-82
2023/01/14 02:23:45;;;;;;;19.65;4.95;;;;;;;;;;5024639;28;20493;-82
2023/01/14 02:26:21;;;;;;;15.57;4.53;;;;;;;;;;5011388;28;20061;-82
2023/01/14 02:29:05;;;;;;;22.50;4.68;;;;;;;;;;5036420;28;20136;-82
2023/01/14 02:31:54;;;;;;;14.35;4.13;;;;;;;;;;5023036;28;20042;-82
2023/01/14 02:34:28;;;;;;;19.60;4.32;;;;;;;;;;5024770;28;20527;-82
2023/01/14 02:36:54;;;;;;;17.70;3.75;;;;;;;;;;5019825;28;20075;-82
2023/01/14 02:39:49;;;;;;;17.92;4.35;;;;;;;;;;5034855;28;20404;-83
2023/01/14 02:45:12;;;;;;;21.33;5.50;;;;;;;;;;5025120;28;20548;-82
2023/01/14 02:47:40;;;;;;;21.48;5.50;;;;;;;;;;5025311;28;20049;-82
2023/01/14 02:50:07;;;;;;;21.77;5.15;;;;;;;;;;5028101;28;20056;-82
2023/01/14 02:52:33;;;;;;;22.35;4.95;;;;;;;;;;5028352;28;20046;-82
2023/01/14 02:55:01;;;;;;;15.27;4.47;;;;;;;;;;5016199;28;20057;-82
2023/01/14 02:57:32;;;;;;;19.75;4.60;;;;;;;;;;5021132;28;20128;-82
2023/01/14 03:00:17;;;;;;;19.85;4.28;;;;;;;;;;5015414;28;20045;-82
2023/01/14 03:02:47;;;;;;;23.08;4.50;;;;;;;;;;5023248;28;20387;-82
2023/01/14 03:05:31;;;;;;;23.38;5.88;;;;;;;;;;5031771;28;20711;-82
2023/01/14 03:08:24;;;;;;;24.55;5.35;;;;;;;;;;5030218;28;20136;-82
2023/01/14 03:10:57;;;;;;;20.02;5.10;;;;;;;;;;5013191;28;20481;-82
2023/01/14 03:13:31;;;;;;;17.40;4.88;;;;;;;;;;5037571;28;20060;-82
2023/01/14 03:16:01;;;;;;;23.33;5.20;;;;;;;;;;5031916;28;20044;-82
2023/01/14 03:18:47;;;;;;;18.45;4.72;;;;;;;;;;5022545;28;20058;-82
2023/01/14 03:21:23;;;;;;;18.52;4.07;;;;;;;;;;5014329;28;20111;-82
2023/01/14 03:24:01;;;;;;;23.92;5.20;;;;;;;;;;5027064;28;20073;-82
2023/01/14 03:26:30;;;;;;;22.73;4.82;;;;;;;;;;5027679;28;20041;-82
2023/01/14 03:29:00;;;;;;;21.30;4.47;;;;;;;;;;5059254;28;20092;-82
2023/01/14 03:31:27;;;;;;;19.50;4.78;;;;;;;;;;5028174;28;20060;-82
2023/01/14 03:33:56;;;;;;;22.27;5.18;;;;;;;;;;5029550;28;20049;-81
2023/01/14 03:36:24;;;;;;;19.70;3.97;;;;;;;;;;5018035;28;20064;-82
2023/01/14 03:38:53;;;;;;;17.55;4.38;;;;;;;;;;5034878;28;20046;-82
2023/01/14 03:44:09;;;;;;;23.90;4.57;;;;;;;;;;5023874;28;20045;-82
2023/01/14 03:46:36;;;;;;;20.45;4.30;;;;;;;;;;5031914;28;20044;-82
2023/01/14 03:49:02;;;;;;;21.10;4.97;;;;;;;;;;5021016;28;20038;-81
2023/01/14 03:51:33;;;;;;;21.13;4.25;;;;;;;;;;5028882;28;20505;-82
2023/01/14 03:54:02;;;;;;;17.48;4.38;;;;;;;;;;5022257;28;20477;-82
2023/01/14 03:56:39;;;;;;;20.70;4.93;;;;;;;;;;5051476;28;20088;-82
2023/01/14 03:59:11;;;;;;;21.92;4.32;;;;;;;;;;5036486;28;20041;-81
2023/01/14 04:01:44;;;;;;;16.20;4.13;;;;;;;;;;5021811;28;20050;-81
2023/01/14 04:04:12;;;;;;;15.52;3.75;;;;;;;;;;5032195;28;20295;-82
2023/01/14 04:06:38;;;;;;;17.05;4.80;;;;;;;;;;5033542;28;20045;-82
2023/01/14 04:09:05;;;;;;;16.83;4.35;;;;;;;;;;5030271;28;20408;-82
2023/01/14 04:11:31;;;;;;;15.18;5.47;;;;;;;;;;5014509;28;20080;-82
2023/01/14 04:16:42;;;;;;;20.33;4.40;;;;;;;;;;5046151;28;20373;-81
2023/01/14 04:19:08;;;;;;;19.25;4.55;;;;;;;;;;5031836;28;20056;-82
2023/01/14 04:21:34;;;;;;;21.77;4.45;;;;;;;;;;5030997;28;20041;-81
2023/01/14 04:24:00;;;;;;;20.52;5.07;;;;;;;;;;5035755;28;20046;-82
2023/01/14 04:26:28;;;;;;;20.67;4.65;;;;;;;;;;5024174;28;20046;-82
2023/01/14 04:28:54;;;;;;;15.55;4.28;;;;;;;;;;5016406;28;20127;-82
2023/01/14 04:31:20;;;;;;;18.95;3.97;;;;;;;;;;5030058;28;20037;-81
2023/01/14 04:33:46;;;;;;;20.42;4.50;;;;;;;;;;5014260;28;20140;-82
2023/01/14 04:36:12;;;;;;;22.42;5.63;;;;;;;;;;5022928;28;20081;-82
2023/01/14 04:38:38;;;;;;;20.50;4.72;;;;;;;;;;5015708;28;20042;-81
2023/01/14 04:41:04;;;;;;;20.67;4.30;;;;;;;;;;5025405;28;20048;-81
2023/01/14 04:43:31;;;;;;;18.52;4.63;;;;;;;;;;5026204;28;20386;-81
2023/01/14 04:45:57;;;;;;;19.98;4.75;;;;;;;;;;5024785;28;20041;-81
2023/01/14 04:48:23;;;;;;;20.88;5.05;;;;;;;;;;5024696;28;20378;-81
2023/01/14 04:50:50;;;;;;;18.98;4.45;;;;;;;;;;5028232;28;20053;-81
2023/01/14 04:53:23;;;;;;;20.60;4.63;;;;;;;;;;5017357;28;20080;-81
2023/01/14 04:55:51;;;;;;;20.08;5.22;;;;;;;;;;5026137;28;20064;-81
2023/01/14 04:58:17;;;;;;;15.70;4.20;;;;;;;;;;5062902;28;20049;-81
2023/01/14 05:00:44;;;;;;;22.92;5.05;;;;;;;;;;5022035;28;20073;-81
2023/01/14 05:03:11;;;;;;;17.75;4.78;;;;;;;;;;5026394;28;20371;-82
2023/01/14 05:05:37;;;;;;;18.13;5.75;;;;;;;;;;5022376;28;20041;-82
2023/01/14 05:08:04;;;;;;;19.08;4.82;;;;;;;;;;5034250;28;20045;-81
2023/01/14 05:10:30;;;;;;;25.40;4.95;;;;;;;;;;5012047;28;20045;-81
2023/01/14 05:12:57;;;;;;;19.98;5.25;;;;;;;;;;5043144;28;20052;-81
2023/01/14 05:15:37;;;;;;;22.65;4.93;;;;;;;;;;5029546;28;20227;-81
2023/01/14 05:18:03;;;;;;;15.13;4.53;;;;;;;;;;5027683;28;20084;-82
2023/01/14 05:20:29;;;;;;;17.08;4.15;;;;;;;;;;5031279;28;20053;-81
2023/01/14 05:23:02;;;;;;;21.70;4.80;;;;;;;;;;5029417;28;20037;-81
2023/01/14 05:25:30;;;;;;;19.67;4.75;;;;;;;;;;5028296;28;20056;-81
2023/01/14 05:28:00;;;;;;;20.45;4.65;;;;;;;;;;5016578;28;20049;-81
2023/01/14 05:30:26;;;;;;;21.60;5.00;;;;;;;;;;5022913;28;20050;-81
2023/01/14 05:32:52;;;;;;;14.07;3.85;;;;;;;;;;5029625;28;20486;-81
2023/01/14 05:35:18;;;;;;;18.13;4.57;;;;;;;;;;5027037;28;20053;-81
2023/01/14 05:37:44;;;;;;;16.30;4.22;;;;;;;;;;5015464;28;20050;-81
2023/01/14 05:40:11;;;;;;;20.10;5.28;;;;;;;;;;5038971;28;20064;-82
2023/01/14 05:48:06;;;;;;;20.15;4.97;;;;;;;;;;5019665;28;20081;-80
2023/01/14 05:50:32;;;;;;;15.20;3.60;;;;;;;;;;5032936;28;20080;-81
2023/01/14 05:52:58;;;;;;;23.38;5.15;;;;;;;;;;5030638;28;20081;-81
2023/01/14 05:55:24;;;;;;;18.33;4.78;;;;;;;;;;5033714;28;20453;-81
2023/01/14 05:57:50;;;;;;;13.85;4.80;;;;;;;;;;5024936;28;20037;-81
2023/01/14 06:08:31;;;;;;;17.48;4.50;;;;;;;;;;5024137;28;20046;-81
2023/01/14 06:10:58;;;;;;;17.80;5.30;;;;;;;;;;5019883;28;20041;-80
2023/01/14 06:13:24;;;;;;;21.45;4.65;;;;;;;;;;5026460;28;20527;-80
2023/01/14 06:15:55;;;;;;;21.20;4.88;;;;;;;;;;5032302;28;20049;-80
2023/01/14 06:18:23;;;;;;;20.52;5.40;;;;;;;;;;5011708;28;20052;-81
2023/01/14 06:20:52;;;;;;;16.13;4.55;;;;;;;;;;5022677;28;20050;-82
2023/01/14 06:23:19;;;;;;;16.83;5.13;;;;;;;;;;5036754;28;20548;-81
2023/01/14 06:25:46;;;;;;;19.63;5.10;;;;;;;;;;5028526;28;20576;-81
2023/01/14 06:28:13;;;;;;;21.23;5.55;;;;;;;;;;5022997;28;20057;-81
2023/01/14 06:30:39;;;;;;;20.80;5.30;;;;;;;;;;5037756;28;20051;-81
2023/01/14 06:33:06;;;;;;;20.35;5.47;;;;;;;;;;5011108;28;20051;-81
2023/01/14 06:35:32;;;;;;;22.48;5.57;;;;;;;;;;5021634;28;20505;-81
2023/01/14 06:37:58;;;;;;;19.88;5.97;;;;;;;;;;5016009;28;20140;-81
2023/01/14 06:40:24;;;;;;;21.83;5.40;;;;;;;;;;5029766;28;20141;-81
2023/01/14 06:42:54;;;;;;;22.85;6.32;;;;;;;;;;5009495;28;20049;-81
2023/01/14 06:45:20;;;;;;;23.83;6.25;;;;;;;;;;5029775;28;20424;-81
2023/01/14 06:47:47;;;;;;;22.08;5.75;;;;;;;;;;5028956;28;20490;-81
2023/01/14 06:50:13;;;;;;;25.20;6.82;;;;;;;;;;5021418;28;20056;-81
2023/01/14 06:52:40;;;;;;;24.35;6.80;;;;;;;;;;5024801;28;20053;-81
2023/01/14 06:55:06;;;;;;;19.58;6.25;;;;;;;;;;5025001;28;20045;-81
2023/01/14 06:57:32;;;;;;;20.95;6.22;;;;;;;;;;5022799;28;20140;-81
2023/01/14 06:59:58;;;;;;;22.55;6.45;;;;;;;;;;5027139;28;20121;-81
2023/01/14 07:02:24;;;;;;;26.67;6.65;;;;;;;;;;5030959;28;20539;-81
2023/01/14 07:04:50;;;;;;;20.65;6.43;;;;;;;;;;5027308;28;20044;-81
2023/01/14 07:07:17;;;;;;;29.77;7.35;;;;;;;;;;5016465;28;20042;-81
2023/01/14 07:09:43;;;;;;;30.73;7.57;;;;;;;;;;5022683;28;20065;-81
2023/01/14 07:12:09;;;;;;;20.02;6.57;;;;;;;;;;5021945;28;20045;-81
2023/01/14 07:14:35;;;;;;;19.65;7.22;;;;;;;;;;5034520;28;20045;-81
2023/01/14 07:17:04;;;;;;;31.20;7.80;;;;;;;;;;5024339;28;20419;-81
2023/01/14 07:19:30;;;;;;;21.92;7.57;;;;;;;;;;5016307;28;20132;-81
2023/01/14 07:21:56;;;;;;;26.77;8.35;;;;;;;;;;5015504;28;20064;-81
2023/01/14 07:24:22;;;;;;;23.25;7.20;;;;;;;;;;5037323;28;20152;-81
2023/01/14 07:26:48;;;;;;;27.35;8.30;;;;;;;;;;5025029;28;20482;-81
2023/01/14 07:29:14;;;;;;;23.00;8.00;;;;;;;;;;5020467;28;20125;-81
2023/01/14 07:31:40;;;;;;;26.90;7.55;;;;;;;;;;5057672;28;20501;-81
2023/01/14 07:34:07;;;;;;;26.92;8.25;;;;;;;;;;5018843;28;21045;-81
2023/01/14 07:36:33;;;;;;;34.67;9.10;;;;;;;;;;5011917;28;20053;-81
2023/01/14 07:38:59;;;;;;;26.10;8.18;;;;;;;;;;5026365;28;20132;-81
2023/01/14 07:41:25;;;;;;;32.40;7.40;;;;;;;;;;5008418;28;20050;-81
2023/01/14 07:43:51;;;;;;;21.13;5.97;;;;;;;;;;5026575;28;20046;-81
2023/01/14 07:46:17;;;;;;;26.40;6.38;;;;;;;;;;5026494;28;20045;-81
2023/01/14 07:48:44;;;;;;;25.48;6.85;;;;;;;;;;5043921;28;20126;-80
2023/01/14 07:51:11;;;;;;;26.75;6.90;;;;;;;;;;5023304;28;20048;-81
2023/01/14 07:53:37;;;;;;;24.27;6.07;;;;;;;;;;5029890;28;20386;-81
2023/01/14 07:56:07;;;;;;;21.65;6.07;;;;;;;;;;5022842;28;20445;-81
2023/01/14 07:58:34;;;;;;;23.48;6.22;;;;;;;;;;5024722;28;20048;-80
2023/01/14 08:01:04;;;;;;;20.20;5.93;;;;;;;;;;5030550;28;20052;-80
2023/01/14 08:03:31;;;;;;;18.10;5.55;;;;;;;;;;5029559;28;20057;-81
2023/01/14 08:06:00;;;;;;;18.92;5.72;;;;;;;;;;5020756;28;20058;-81
2023/01/14 08:08:26;;;;;;;20.10;5.80;;;;;;;;;;5015972;28;20115;-81
2023/01/14 08:10:53;;;;;;;22.63;5.70;;;;;;;;;;5022509;28;20049;-81
2023/01/14 08:13:19;;;;;;;23.65;5.18;;;;;;;;;;5019398;28;20393;-81
2023/01/14 08:15:45;;;;;;;21.38;5.70;;;;;;;;;;5036192;28;20045;-81
2023/01/14 08:18:11;;;;;;;22.08;4.97;;;;;;;;;;5038329;28;20057;-81
2023/01/14 08:20:37;;;;;;;23.10;5.78;;;;;;;;;;5003940;28;20042;-81
2023/01/14 08:23:03;;;;;;;21.90;5.38;;;;;;;;;;5018767;28;20052;-81
2023/01/14 08:25:29;;;;;;;19.05;4.90;;;;;;;;;;5024571;28;20037;-81
2023/01/14 08:27:55;;;;;;;19.23;5.50;;;;;;;;;;5014427;28;20042;-81
2023/01/14 08:30:21;;;;;;;25.52;8.82;;;;;;;;;;5037544;28;20042;-81
2023/01/14 08:32:50;;;;;;;19.30;5.20;;;;;;;;;;5021502;28;20046;-81
2023/01/14 08:35:16;;;;;;;16.80;5.57;;;;;;;;;;5022222;28;20050;-81
2023/01/14 08:37:42;;;;;;;20.45;5.45;;;;;;;;;;5018622;28;20068;-81
2023/01/14 08:40:09;;;;;;;17.35;5.38;;;;;;;;;;5015417;28;20054;-82
2023/01/14 08:42:35;;;;;;;23.08;4.72;;;;;;;;;;5026659;28;20049;-81
2023/01/14 08:45:01;;;;;;;22.63;8.48;;;;;;;;;;5026803;28;20413;-81
2023/01/14 08:47:30;;;;;;;19.83;5.75;;;;;;;;;;5026542;28;20074;-81
2023/01/14 08:49:56;;;;;;;23.40;6.45;;;;;;;;;;5025784;28;20473;-81
2023/01/14 08:52:22;;;;;;;18.50;6.63;;;;;;;;;;5026576;28;20055;-81
2023/01/14 08:54:48;;;;;;;16.33;4.95;;;;;;;;;;5032439;28;20041;-82
2023/01/14 08:57:17;;;;;;;16.10;6.35;;;;;;;;;;5032221;28;20444;-81
2023/01/14 08:59:43;;;;;;;24.80;6.07;;;;;;;;;;5027965;28;20092;-81
2023/01/14 09:02:13;;;;;;;14.13;4.63;;;;;;;;;;5033994;28;20076;-82
2023/01/14 09:04:39;;;;;;;16.90;5.70;;;;;;;;;;5041109;28;20094;-81
2023/01/14 09:18:05;;;;;;;27.00;12.32;;;;;;;;;;5032908;28;20049;-82
2023/01/14 09:20:32;;;;;;;25.38;11.82;;;;;;;;;;5033255;28;20107;-83
2023/01/14 09:22:59;;;;;;;18.45;8.25;;;;;;;;;;5032896;28;20441;-83
2023/01/14 09:25:25;;;;;;;18.48;8.18;;;;;;;;;;5027127;28;20429;-82
2023/01/14 09:27:51;;;;;;;14.50;5.05;;;;;;;;;;5033781;28;20041;-82
2023/01/14 09:30:17;;;;;;;15.82;4.55;;;;;;;;;;5040312;28;20045;-83
2023/01/14 09:32:44;;;;;;;12.85;4.80;;;;;;;;;;5028815;28;20512;-82
2023/01/14 09:35:11;;;;;;;15.57;5.47;;;;;;;;;;5038660;28;20147;-82
2023/01/14 09:37:37;;;;;;;10.32;4.32;;;;;;;;;;5047534;28;20049;-83
2023/01/14 09:40:03;;;;;;;13.10;6.03;;;;;;;;;;5024715;28;20057;-82
2023/01/14 09:42:36;;;;;;;8.90;4.28;;;;;;;;;;5020180;28;20156;-82
2023/01/14 09:45:11;;;;;;;13.05;4.65;;;;;;;;;;5036327;28;20052;-82
2023/01/14 09:47:37;;;;;;;12.60;6.30;;;;;;;;;;5053070;28;20123;-83
2023/01/14 09:50:06;;;;;;;9.75;4.50;;;;;;;;;;5023989;28;20497;-83
2023/01/14 09:52:51;;;;;;;10.35;4.65;;;;;;;;;;5031825;28;20072;-83
2023/01/14 09:55:25;;;;;;;6.90;3.88;;;;;;;;;;5035252;28;20050;-76
2023/01/14 09:57:54;;;;;;;9.43;4.43;;;;;;;;;;5026470;28;20087;-82
2023/01/14 10:00:38;;;;;;;10.13;4.00;;;;;;;;;;5022961;28;20034;-85
2023/01/14 10:03:04;;;;;;;;;;;;;;;;;;5019010;28;20389;-83
2023/01/14 10:05:33;;;;;;;10.10;4.70;;;;;;;;;;5021977;28;19948;-86
2023/01/14 10:08:03;;;;;;;8.32;3.97;;;;;;;;;;5031270;28;20100;-83
2023/01/14 10:10:31;;;;;;;9.23;4.38;;;;;;;;;;5015416;28;20054;-83
2023/01/14 10:13:02;;;;;;;13.30;5.97;;;;;;;;;;5025597;28;20270;-82
2023/01/14 10:15:41;;;;;;;9.10;4.93;;;;;;;;;;5025816;28;20478;-81
2023/01/14 10:18:23;;;;;;;6.05;4.13;;;;;;;;;;5030692;28;20061;-80
2023/01/14 10:21:05;;;;;;;6.03;3.55;;;;;;;;;;5023553;28;20053;-79
2023/01/14 10:23:37;;;;;;;6.65;3.80;;;;;;;;;;5041475;28;20092;-80
2023/01/14 10:26:18;;;;;;;6.47;3.67;;;;;;;;;;5022911;28;20053;-80
2023/01/14 10:28:45;;;;;;;7.35;3.80;;;;;;;;;;5027343;28;20052;-81
2023/01/14 10:31:17;;;;;;;5.80;3.25;;;;;;;;;;5039814;28;20390;-81
2023/01/14 10:33:43;;;;;;;6.40;3.45;;;;;;;;;;5039487;28;20497;-81
2023/01/14 10:36:14;;;;;;;7.50;3.35;;;;;;;;;;5015869;28;20151;-80
2023/01/14 10:38:42;;;;;;;5.43;3.50;;;;;;;;;;5025233;28;20049;-81
2023/01/14 10:41:09;;;;;;;5.55;3.22;;;;;;;;;;5023909;28;20045;-81
2023/01/14 10:43:36;;;;;;;6.60;3.33;;;;;;;;;;5024758;28;20061;-80
2023/01/14 10:46:02;;;;;;;7.70;3.97;;;;;;;;;;5017942;28;20052;-80
2023/01/14 10:48:34;;;;;;;7.93;5.32;;;;;;;;;;5028671;28;20044;-80
2023/01/14 10:51:18;;;;;;;4.30;3.13;;;;;;;;;;5028997;28;20091;-81
2023/01/14 10:53:47;;;;;;;5.68;3.20;;;;;;;;;;5026379;28;20085;-80
2023/01/14 10:56:13;;;;;;;5.60;3.58;;;;;;;;;;5028363;28;20092;-81
2023/01/14 10:58:44;;;;;;;4.28;3.30;;;;;;;;;;5025749;28;20133;-80
2023/01/14 11:01:11;;;;;;;5.47;4.13;;;;;;;;;;5021677;28;20042;-80
2023/01/14 11:03:41;;;;;;;6.97;3.90;;;;;;;;;;5028709;28;20060;-80
2023/01/14 11:06:14;;;;;;;8.82;3.80;;;;;;;;;;5023398;28;20046;-79
2023/01/14 11:08:41;;;;;;;7.10;5.32;;;;;;;;;;5019034;28;20038;-81
2023/01/14 11:11:12;;;;;;;7.70;4.75;;;;;;;;;;5023144;28;20049;-82
2023/01/14 11:13:44;;;;;;;5.45;4.05;;;;;;;;;;5031011;28;20494;-81
2023/01/14 11:16:25;;;;;;;7.00;4.05;;;;;;;;;;5031152;28;20109;-81
2023/01/14 11:19:09;;;;;;;6.65;4.03;;;;;;;;;;5023413;28;20417;-81
2023/01/14 11:21:40;;;;;;;6.03;4.32;;;;;;;;;;5029025;28;20045;-81
2023/01/14 11:24:23;;;;;;;6.60;3.38;;;;;;;;;;5025280;28;20382;-80
2023/01/14 11:26:49;;;;;;;11.40;7.05;;;;;;;;;;5022711;28;20038;-82
2023/01/14 11:29:19;;;;;;;8.43;5.68;;;;;;;;;;5020835;28;20046;-81
2023/01/14 11:31:47;;;;;;;6.15;4.38;;;;;;;;;;5022584;28;20057;-82
2023/01/14 11:34:33;;;;;;;6.38;4.70;;;;;;;;;;5032031;28;20095;-81
2023/01/14 11:37:03;;;;;;;7.32;4.07;;;;;;;;;;5028769;28;20037;-80
2023/01/14 11:39:29;;;;;;;3.75;3.40;;;;;;;;;;5024510;28;20136;-81
2023/01/14 11:41:57;;;;;;;4.40;3.33;;;;;;;;;;5023539;28;20087;-81
2023/01/14 11:44:23;;;;;;;6.13;3.60;;;;;;;;;;5025270;28;22184;-80
2023/01/14 11:47:08;;;;;;;5.40;3.70;;;;;;;;;;5025287;28;20501;-82
2023/01/14 11:49:34;;;;;;;7.30;3.63;;;;;;;;;;5024242;28;20042;-80
2023/01/14 11:52:02;;;;;;;5.13;3.58;;;;;;;;;;5030078;28;20046;-80
2023/01/14 11:54:34;;;;;;;5.78;3.97;;;;;;;;;;5027859;28;20045;-81
2023/01/14 11:57:00;;;;;;;6.07;2.72;;;;;;;;;;5028951;28;20418;-82
2023/01/14 11:59:33;;;;;;;4.05;3.20;;;;;;;;;;5031401;28;20120;-82
2023/01/14 12:02:01;;;;;;;6.10;3.47;;;;;;;;;;5026035;28;20052;-83
2023/01/14 12:04:44;;;;;;;4.43;3.15;;;;;;;;;;5019641;28;20532;-82
2023/01/14 12:07:30;;;;;;;6.72;3.15;;;;;;;;;;5026886;28;20044;-81
2023/01/14 12:09:59;;;;;;;5.82;2.90;;;;;;;;;;5039152;28;20492;-81
2023/01/14 12:12:25;;;;;;;4.00;2.92;;;;;;;;;;5022873;28;20507;-82
2023/01/14 12:17:49;;;;;;;5.10;2.83;;;;;;;;;;5026204;28;20049;-82
2023/01/14 12:20:17;;;;;;;3.20;2.40;;;;;;;;;;5029353;28;20524;-79
2023/01/14 12:23:00;;;;;;;4.28;2.60;;;;;;;;;;5025507;28;20037;-82
2023/01/14 12:25:41;;;;;;;5.30;2.88;;;;;;;;;;5049575;28;20497;-82
2023/01/14 12:28:12;;;;;;;4.82;2.75;;;;;;;;;;5053521;28;20042;-82
2023/01/14 12:30:41;;;;;;;4.65;3.00;;;;;;;;;;5030454;28;20385;-81
2023/01/14 12:33:10;;;;;;;3.30;2.28;;;;;;;;;;5019630;28;20054;-82
2023/01/14 12:36:02;;;;;;;3.67;2.80;;;;;;;;;;5020329;28;20038;-82
2023/01/14 12:46:48;;;;;;;4.63;3.20;;;;;;;;;;5023140;28;20132;-85
2023/01/14 12:49:14;;;;;;;6.13;2.95;;;;;;;;;;5023900;28;20061;-86
2023/01/14 12:51:44;;;;;;;3.42;2.60;;;;;;;;;;5021467;28;20037;-82
2023/01/14 12:54:19;;;;;;;3.90;2.97;;;;;;;;;;5027258;28;20106;-87
2023/01/14 12:56:59;;;;;;;7.30;2.88;;;;;;;;;;5024024;28;20143;-86
2023/01/14 12:59:35;;;;;;;5.82;2.97;;;;;;;;;;5027059;28;20052;-86
2023/01/14 13:02:03;;;;;;;5.15;3.45;;;;;;;;;;5025908;28;20045;-85
2023/01/14 13:04:33;;;;;;;7.43;3.00;;;;;;;;;;5021486;28;20049;-87
2023/01/14 13:07:01;;;;;;;6.45;3.10;;;;;;;;;;5027413;28;20033;-85
2023/01/14 13:09:44;;;;;;;7.10;3.30;;;;;;;;;;5026661;28;20144;-86
2023/01/14 13:12:32;;;;;;;6.40;3.47;;;;;;;;;;5027445;28;20052;-87
2023/01/14 13:14:59;;;;;;;4.53;2.83;;;;;;;;;;5024588;28;20057;-86
2023/01/14 13:17:32;;;;;;;3.30;2.83;;;;;;;;;;5027041;28;20057;-87
2023/01/14 13:19:59;;;;;;;7.35;2.80;;;;;;;;;;5027458;28;20078;-88
2023/01/14 13:22:45;;;;;;;10.52;3.13;;;;;;;;;;5021884;28;20434;-88
2023/01/14 13:25:15;;;;;;;4.78;2.72;;;;;;;;;;5028793;28;20100;-85
2023/01/14 13:27:42;;;;;;;4.35;2.40;;;;;;;;;;5020418;28;20056;-86
2023/01/14 13:30:18;;;;;;;3.72;1.98;;;;;;;;;;5021187;28;20101;-88
2023/01/14 13:32:51;;;;;;;5.20;2.50;;;;;;;;;;5029332;28;20045;-85
2023/01/14 13:35:18;;;;;;;7.70;2.45;;;;;;;;;;5020323;28;20447;-85
2023/01/14 13:37:45;;;;;;;9.32;2.83;;;;;;;;;;5032697;28;20045;-87
2023/01/14 13:40:18;;;;;;;3.45;2.20;;;;;;;;;;5024870;28;20561;-88
2023/01/14 13:42:45;;;;;;;8.18;2.47;;;;;;;;;;5028970;28;20107;-88
2023/01/14 13:45:27;;;;;;;5.60;2.20;;;;;;;;;;5022499;28;20047;-86
2023/01/14 13:47:55;;;;;;;4.60;2.10;;;;;;;;;;5022375;28;20140;-87
2023/01/14 13:50:23;;;;;;;4.68;2.13;;;;;;;;;;5024583;28;20044;-86
2023/01/14 13:53:09;;;;;;;3.67;1.63;;;;;;;;;;5020943;28;20048;-86
2023/01/14 13:55:35;;;;;;;9.45;4.20;;;;;;;;;;5014838;28;20073;-85
2023/01/14 13:58:16;;;;;;;8.30;2.67;;;;;;;;;;5023352;28;20045;-86
2023/01/14 14:00:44;;;;;;;7.07;2.50;;;;;;;;;;5021474;28;20045;-88
2023/01/14 14:03:29;;;;;;;8.93;2.97;;;;;;;;;;5012610;28;20522;-88
2023/01/14 14:06:14;;;;;;;9.13;3.38;;;;;;;;;;5029020;28;20053;-86
2023/01/14 14:08:40;;;;;;;6.63;3.05;;;;;;;;;;5050958;28;20060;-87
2023/01/14 14:11:10;;;;;;;8.10;3.25;;;;;;;;;;5026303;28;20052;-86
2023/01/14 14:16:51;;;;;;;3.63;2.08;;;;;;;;;;5014760;28;20193;-85
2023/01/14 14:19:19;;;;;;;4.13;2.17;;;;;;;;;;5025157;28;20054;-87
2023/01/14 14:21:54;;;;;;;8.25;2.88;;;;;;;;;;5027830;28;20048;-87
2023/01/14 14:24:25;;;;;;;3.67;2.22;;;;;;;;;;5031882;28;20462;-86
2023/01/14 14:26:52;;;;;;;9.20;2.47;;;;;;;;;;5034296;28;20091;-84
2023/01/14 14:29:19;;;;;;;7.38;2.47;;;;;;;;;;5029445;28;20148;-85
2023/01/14 14:31:46;;;;;;;7.88;2.20;;;;;;;;;;5024942;28;20056;-87
2023/01/14 14:34:22;;;;;;;11.68;4.63;;;;;;;;;;5017879;28;20223;-88
2023/01/14 14:36:53;;;;;;;4.07;1.88;;;;;;;;;;5030019;28;20046;-87
2023/01/14 14:39:30;;;;;;;6.05;2.38;;;;;;;;;;5029252;28;20049;-86
2023/01/14 14:41:56;;;;;;;5.82;1.98;;;;;;;;;;5031092;28;20049;-87
2023/01/14 14:44:27;;;;;;;10.30;2.35;;;;;;;;;;5016932;28;20046;-86
2023/01/14 14:46:54;;;;;;;7.68;3.35;;;;;;;;;;5029945;28;20049;-85
2023/01/14 14:49:28;;;;;;;10.98;2.65;;;;;;;;;;5029636;28;20049;-85
2023/01/14 14:51:56;;;;;;;7.10;2.35;;;;;;;;;;5023116;28;20049;-86
2023/01/14 14:54:25;;;;;;;9.85;2.20;;;;;;;;;;5060279;28;20397;-85
2023/01/14 14:56:51;;;;;;;10.15;2.78;;;;;;;;;;5029544;28;20052;-86
2023/01/14 14:59:17;;;;;;;6.55;2.40;;;;;;;;;;5031736;28;20381;-86
2023/01/14 15:01:43;;;;;;;15.60;3.13;;;;;;;;;;5029695;28;20455;-87
2023/01/14 15:04:15;;;;;;;10.80;2.83;;;;;;;;;;5030342;28;20100;-87
2023/01/14 15:06:41;;;;;;;9.85;2.70;;;;;;;;;;5021756;28;20037;-87
2023/01/14 15:09:09;;;;;;;13.65;3.72;;;;;;;;;;5022325;28;20050;-85
2023/01/14 15:11:45;;;;;;;12.65;2.83;;;;;;;;;;5025562;28;20118;-87
2023/01/14 15:14:23;;;;;;;10.93;2.58;;;;;;;;;;5029458;28;20049;-87
2023/01/14 15:16:50;;;;;;;11.30;2.80;;;;;;;;;;5023937;28;20045;-86
2023/01/14 15:19:16;;;;;;;6.78;3.08;;;;;;;;;;5027685;28;20429;-86
2023/01/14 15:21:43;;;;;;;11.82;2.70;;;;;;;;;;5033472;28;20045;-87
2023/01/14 15:24:16;;;;;;;6.32;2.30;;;;;;;;;;5030199;28;20080;-87
2023/01/14 15:26:43;;;;;;;11.57;2.50;;;;;;;;;;5028125;28;20168;-86
2023/01/14 15:29:16;;;;;;;13.23;2.72;;;;;;;;;;5031885;28;20499;-87
2023/01/14 15:31:42;;;;;;;6.68;2.50;;;;;;;;;;5021667;28;20045;-85
2023/01/14 15:34:14;;;;;;;7.05;2.45;;;;;;;;;;5014787;28;20046;-85
2023/01/14 15:36:43;;;;;;;5.35;2.22;;;;;;;;;;5027131;28;20202;-84